createdAt,value
2023-06-18T00:02:05.805Z,99796.47
2023-06-18T00:04:33.316Z,99797.38
2023-06-18T00:07:00.592Z,99798.31
2023-06-18T00:09:27.633Z,99796.63
2023-06-18T00:11:54.654Z,99794.97
2023-06-18T00:14:21.768Z,99794.16
2023-06-18T00:16:50.851Z,99796.00
2023-06-18T00:19:18.536Z,99796.03
2023-06-18T00:21:46.191Z,99793.44
2023-06-18T00:24:13.361Z,99796.94
2023-06-18T00:26:40.520Z,99799.53
2023-06-18T00:29:07.811Z,99797.03
2023-06-18T00:31:36.256Z,99786.69
2023-06-18T00:34:08.012Z,99791.13
2023-06-18T00:36:40.230Z,99792.91
2023-06-18T00:39:08.471Z,99797.25
2023-06-18T00:41:36.376Z,99803.28
2023-06-18T00:44:04.156Z,99798.97
2023-06-18T00:46:32.125Z,99804.13
2023-06-18T00:48:59.729Z,99811.13
2023-06-18T00:51:29.847Z,99811.09
2023-06-18T00:53:57.576Z,99815.50
2023-06-18T00:56:26.677Z,99818.19
2023-06-18T00:58:54.166Z,99808.63
2023-06-18T01:01:21.847Z,99809.53
2023-06-18T01:03:49.816Z,99808.63
2023-06-18T01:06:18.918Z,99811.25
2023-06-18T01:08:50.171Z,99817.44
2023-06-18T01:11:20.007Z,99820.09
2023-06-18T01:13:47.216Z,99807.94
2023-06-18T01:16:14.948Z,99814.94
2023-06-18T01:18:46.654Z,99819.25
2023-06-18T01:21:20.689Z,99822.75
2023-06-18T01:23:55.503Z,99821.88
2023-06-18T01:26:22.629Z,99819.22
2023-06-18T01:28:52.826Z,99820.94
2023-06-18T01:31:22.578Z,99814.09
2023-06-18T01:33:54.673Z,99818.47
2023-06-18T01:36:35.786Z,99819.34
2023-06-18T01:39:18.974Z,99823.59
2023-06-18T01:41:46.449Z,99822.63
2023-06-18T01:44:14.666Z,99819.91
2023-06-18T01:46:42.410Z,99830.28
2023-06-18T01:49:09.771Z,99827.56
2023-06-18T01:51:38.957Z,99824.00
2023-06-18T01:54:07.053Z,99831.75
2023-06-18T01:56:34.376Z,99829.97
2023-06-18T01:59:03.043Z,99832.47
2023-06-18T02:01:31.558Z,99836.69
2023-06-18T02:03:59.177Z,99832.19
2023-06-18T02:06:26.419Z,99833.84
2023-06-18T02:08:53.498Z,99834.59
2023-06-18T02:11:23.504Z,99837.09
2023-06-18T02:13:50.912Z,99842.25
2023-06-18T02:16:18.599Z,99833.53
2023-06-18T02:18:47.020Z,99844.75
2023-06-18T02:21:14.020Z,99840.34
2023-06-18T02:23:41.587Z,99842.03
2023-06-18T02:26:10.157Z,99842.00
2023-06-18T02:28:37.480Z,99848.06
2023-06-18T02:31:06.931Z,99848.78
2023-06-18T02:33:34.224Z,99853.00
2023-06-18T02:36:01.596Z,99861.53
2023-06-18T02:38:29.337Z,99865.00
2023-06-18T02:40:57.061Z,99865.88
2023-06-18T02:43:26.442Z,99858.09
2023-06-18T02:45:53.863Z,99871.09
2023-06-18T02:48:21.116Z,99876.25
2023-06-18T02:50:48.563Z,99878.00
2023-06-18T02:53:16.205Z,99877.94
2023-06-18T02:55:43.902Z,99879.66
2023-06-18T02:58:18.770Z,99881.38
2023-06-18T03:00:46.601Z,99890.13
2023-06-18T03:03:15.818Z,99884.88
2023-06-18T03:05:47.024Z,99890.09
2023-06-18T03:08:14.064Z,99886.50
2023-06-18T03:10:43.807Z,99885.66
2023-06-18T03:13:10.953Z,99893.47
2023-06-18T03:15:44.560Z,99890.72
2023-06-18T03:18:13.304Z,99893.16
2023-06-18T03:20:41.230Z,99893.91
2023-06-18T03:23:08.501Z,99888.69
2023-06-18T03:25:36.459Z,99892.13
2023-06-18T03:28:03.717Z,99896.41
2023-06-18T03:30:34.385Z,99901.59
2023-06-18T03:33:03.554Z,99896.25
2023-06-18T03:35:33.993Z,99896.00
2023-06-18T03:38:01.318Z,99895.78
2023-06-18T03:40:28.423Z,99899.75
2023-06-18T03:42:56.329Z,99899.31
2023-06-18T03:45:26.596Z,99898.88
2023-06-18T03:47:53.897Z,99901.88
2023-06-18T03:50:24.600Z,99891.88
2023-06-18T03:52:51.808Z,99888.16
2023-06-18T03:55:19.073Z,99892.72
2023-06-18T03:57:47.640Z,99894.97
2023-06-18T04:00:15.493Z,99895.47
2023-06-18T04:02:44.293Z,99897.41
2023-06-18T04:05:23.562Z,99901.22
2023-06-18T04:07:51.709Z,99900.09
2023-06-18T04:10:18.942Z,99903.19
2023-06-18T04:12:47.564Z,99905.03
2023-06-18T04:15:14.991Z,99908.56
2023-06-18T04:17:43.056Z,99906.38
2023-06-18T04:20:13.471Z,99910.59
2023-06-18T04:22:41.161Z,99917.53
2023-06-18T04:25:10.387Z,99915.84
2023-06-18T04:27:38.717Z,99918.66
2023-06-18T04:30:07.219Z,99917.97
2023-06-18T04:32:34.301Z,99922.34
2023-06-18T04:35:02.519Z,99920.41
2023-06-18T04:37:32.735Z,99923.22
2023-06-18T04:39:59.977Z,99915.31
2023-06-18T04:42:26.994Z,99906.34
2023-06-18T04:44:54.161Z,99915.81
2023-06-18T04:47:21.359Z,99917.59
2023-06-18T04:49:48.469Z,99914.78
2023-06-18T04:52:18.222Z,99917.38
2023-06-18T04:54:46.592Z,99914.75
2023-06-18T04:57:13.688Z,99913.84
2023-06-18T04:59:41.279Z,99921.50
2023-06-18T05:02:10.510Z,99911.63
2023-06-18T05:04:37.701Z,99910.41
2023-06-18T05:07:05.037Z,99906.94
2023-06-18T05:09:35.026Z,99907.81
2023-06-18T05:12:02.131Z,99906.09
2023-06-18T05:14:30.665Z,99910.19
2023-06-18T05:16:57.996Z,99920.59
2023-06-18T05:19:25.158Z,99914.59
2023-06-18T05:21:52.352Z,99911.66
2023-06-18T05:24:23.272Z,99918.53
2023-06-18T05:26:50.977Z,99914.69
2023-06-18T05:29:19.362Z,99912.75
2023-06-18T05:31:49.171Z,99918.47
2023-06-18T05:34:24.680Z,99920.50
2023-06-18T05:36:51.909Z,99918.31
2023-06-18T05:39:19.171Z,99917.66
2023-06-18T05:41:46.814Z,99923.03
2023-06-18T05:44:15.116Z,99911.47
2023-06-18T05:46:42.337Z,99915.38
2023-06-18T05:49:11.223Z,99913.28
2023-06-18T05:51:38.696Z,99910.22
2023-06-18T05:54:06.981Z,99903.88
2023-06-18T05:56:34.141Z,99908.06
2023-06-18T05:59:01.332Z,99905.78
2023-06-18T06:01:34.851Z,99907.66
2023-06-18T06:04:02.550Z,99901.31
2023-06-18T06:06:30.197Z,99898.47
2023-06-18T06:08:57.372Z,99905.47
2023-06-18T06:11:24.746Z,99905.84
2023-06-18T06:13:51.928Z,99902.50
2023-06-18T06:16:19.063Z,99907.31
2023-06-18T06:18:46.608Z,99905.41
2023-06-18T06:21:14.764Z,99905.97
2023-06-18T06:23:42.642Z,99908.22
2023-06-18T06:26:09.690Z,99906.31
2023-06-18T06:28:39.364Z,99902.03
2023-06-18T06:31:07.885Z,99895.97
2023-06-18T06:33:35.128Z,99896.91
2023-06-18T06:36:02.550Z,99893.84
2023-06-18T06:38:29.953Z,99895.63
2023-06-18T06:40:57.351Z,99896.00
2023-06-18T06:43:26.894Z,99897.63
2023-06-18T06:46:12.330Z,99893.91
2023-06-18T06:48:57.991Z,99897.22
2023-06-18T06:51:39.784Z,99892.94
2023-06-18T06:54:14.465Z,99895.91
2023-06-18T06:56:41.794Z,99892.72
2023-06-18T06:59:10.193Z,99905.91
2023-06-18T07:01:37.710Z,99901.09
2023-06-18T07:04:04.961Z,99897.16
2023-06-18T07:06:32.619Z,99891.44
2023-06-18T07:09:01.379Z,99897.41
2023-06-18T07:11:28.944Z,99901.38
2023-06-18T07:13:56.176Z,99899.00
2023-06-18T07:16:23.430Z,99904.13
2023-06-18T07:18:50.604Z,99894.22
2023-06-18T07:21:18.439Z,99901.03
2023-06-18T07:23:45.651Z,99891.34
2023-06-18T07:26:12.745Z,99898.91
2023-06-18T07:28:39.961Z,99900.94
2023-06-18T07:31:06.997Z,99893.19
2023-06-18T07:33:34.066Z,99896.25
2023-06-18T07:36:01.316Z,99893.19
2023-06-18T07:38:28.347Z,99891.03
2023-06-18T07:40:55.916Z,99886.16
2023-06-18T07:43:23.148Z,99893.38
2023-06-18T07:45:50.419Z,99883.50
2023-06-18T07:48:18.205Z,99883.16
2023-06-18T07:50:45.741Z,99888.91
2023-06-18T07:53:12.816Z,99883.25
2023-06-18T07:55:39.907Z,99890.72
2023-06-18T07:58:06.956Z,99890.19
2023-06-18T08:00:34.138Z,99887.53
2023-06-18T08:03:01.423Z,99889.66
2023-06-18T08:05:28.536Z,99888.06
2023-06-18T08:07:56.132Z,99887.03
2023-06-18T08:10:23.914Z,99886.59
2023-06-18T08:12:51.424Z,99880.00
2023-06-18T08:15:18.539Z,99878.41
2023-06-18T08:17:45.724Z,99879.97
2023-06-18T08:20:12.977Z,99869.22
2023-06-18T08:22:40.047Z,99871.69
2023-06-18T08:25:08.481Z,99871.59
2023-06-18T08:27:36.026Z,99875.50
2023-06-18T08:30:04.722Z,99869.56
2023-06-18T08:32:32.958Z,99870.41
2023-06-18T08:35:02.350Z,99870.97
2023-06-18T08:37:32.157Z,99862.22
2023-06-18T08:39:59.287Z,99865.22
2023-06-18T08:42:26.350Z,99856.88
2023-06-18T08:44:54.619Z,99865.38
2023-06-18T08:47:22.437Z,99865.34
2023-06-18T08:49:51.196Z,99855.88
2023-06-18T08:52:20.819Z,99862.44
2023-06-18T08:54:51.041Z,99857.53
2023-06-18T08:57:34.394Z,99859.66
2023-06-18T09:00:01.889Z,99853.44
2023-06-18T09:02:34.271Z,99853.44
2023-06-18T09:05:03.307Z,99856.03
2023-06-18T09:07:31.612Z,99860.69
2023-06-18T09:09:59.048Z,99854.25
2023-06-18T09:12:26.072Z,99850.91
2023-06-18T09:14:53.212Z,99860.25
2023-06-18T09:17:20.265Z,99858.38
2023-06-18T09:19:47.932Z,99857.22
2023-06-18T09:22:16.568Z,99859.56
2023-06-18T09:24:46.975Z,99859.00
2023-06-18T09:27:14.203Z,99855.75
2023-06-18T09:29:42.579Z,99840.91
2023-06-18T09:32:16.170Z,99840.84
2023-06-18T09:34:44.480Z,99837.97
2023-06-18T09:37:14.290Z,99842.19
2023-06-18T09:39:41.828Z,99847.38
2023-06-18T09:42:10.934Z,99847.75
2023-06-18T09:44:38.432Z,99840.91
2023-06-18T09:47:12.536Z,99844.78
2023-06-18T09:49:46.977Z,99839.00
2023-06-18T09:52:16.926Z,99840.59
2023-06-18T09:54:44.765Z,99837.19
2023-06-18T09:57:14.489Z,99837.09
2023-06-18T09:59:41.929Z,99836.84
2023-06-18T10:02:10.477Z,99832.97
2023-06-18T10:04:38.702Z,99836.75
2023-06-18T10:07:07.331Z,99839.19
2023-06-18T10:09:37.934Z,99828.66
2023-06-18T10:12:05.980Z,99828.31
2023-06-18T10:14:33.948Z,99831.31
2023-06-18T10:17:02.028Z,99835.53
2023-06-18T10:19:35.910Z,99825.25
2023-06-18T10:22:06.692Z,99829.25
2023-06-18T10:24:42.641Z,99832.22
2023-06-18T10:27:10.590Z,99833.19
2023-06-18T10:29:37.510Z,99833.94
2023-06-18T10:32:05.532Z,99828.97
2023-06-18T10:34:35.989Z,99826.41
2023-06-18T10:37:03.126Z,99823.91
2023-06-18T10:39:30.230Z,99822.13
2023-06-18T10:41:57.552Z,99826.22
2023-06-18T10:44:34.880Z,99822.88
2023-06-18T10:47:19.536Z,99830.69
2023-06-18T10:50:01.810Z,99826.56
2023-06-18T10:52:38.167Z,99823.91
2023-06-18T10:55:08.207Z,99820.28
2023-06-18T10:58:02.327Z,99823.66
2023-06-18T11:00:34.409Z,99816.59
2023-06-18T11:03:05.942Z,99818.31
2023-06-18T11:05:33.188Z,99820.63
2023-06-18T11:08:09.959Z,99819.91
2023-06-18T11:10:40.784Z,99818.81
2023-06-18T11:13:09.155Z,99805.47
2023-06-18T11:15:37.152Z,99821.22
2023-06-18T11:18:04.379Z,99815.94
2023-06-18T11:20:33.076Z,99814.50
2023-06-18T11:23:01.381Z,99818.34
2023-06-18T11:25:29.425Z,99814.09
2023-06-18T11:27:59.930Z,99816.19
2023-06-18T11:30:27.932Z,99806.38
2023-06-18T11:32:55.177Z,99808.13
2023-06-18T11:35:22.713Z,99805.31
2023-06-18T11:37:49.872Z,99809.97
2023-06-18T11:40:17.074Z,99811.34
2023-06-18T11:42:52.019Z,99813.84
2023-06-18T11:45:19.859Z,99807.25
2023-06-18T11:47:48.865Z,99809.47
2023-06-18T11:50:16.941Z,99803.22
2023-06-18T11:52:45.662Z,99805.16
2023-06-18T11:55:12.808Z,99809.22
2023-06-18T11:57:40.331Z,99799.94
2023-06-18T12:00:11.712Z,99799.63
2023-06-18T12:02:42.296Z,99802.13
2023-06-18T12:05:10.349Z,99800.72
2023-06-18T12:07:43.427Z,99799.66
2023-06-18T12:10:12.024Z,99787.13
2023-06-18T12:12:39.081Z,99788.78
2023-06-18T12:15:34.193Z,99787.72
2023-06-18T12:18:06.730Z,99794.94
2023-06-18T12:20:33.860Z,99790.06
2023-06-18T12:23:01.782Z,99792.38
2023-06-18T12:25:30.280Z,99791.06
2023-06-18T12:27:59.922Z,99785.88
2023-06-18T12:30:38.436Z,99792.44
2023-06-18T12:33:06.952Z,99787.56
2023-06-18T12:35:36.191Z,99788.22
2023-06-18T12:38:06.119Z,99785.53
2023-06-18T12:40:34.084Z,99779.53
2023-06-18T12:43:08.101Z,99789.00
2023-06-18T12:45:35.516Z,99783.88
2023-06-18T12:48:16.774Z,99781.47
2023-06-18T12:50:47.714Z,99781.38
2023-06-18T12:53:17.834Z,99778.69
2023-06-18T12:55:46.211Z,99778.22
2023-06-18T12:58:29.560Z,99767.84
2023-06-18T13:01:00.471Z,99774.09
2023-06-18T13:03:28.503Z,99776.13
2023-06-18T13:05:57.950Z,99770.63
2023-06-18T13:08:25.459Z,99769.81
2023-06-18T13:10:53.294Z,99764.47
2023-06-18T13:13:20.911Z,99760.47
2023-06-18T13:15:50.256Z,99764.59
2023-06-18T13:18:19.968Z,99756.31
2023-06-18T13:20:47.956Z,99754.44
2023-06-18T13:23:15.709Z,99760.22
2023-06-18T13:25:42.999Z,99751.78
2023-06-18T13:28:10.663Z,99735.78
2023-06-18T13:30:37.850Z,99753.22
2023-06-18T13:33:04.943Z,99741.44
2023-06-18T13:35:32.280Z,99749.50
2023-06-18T13:37:59.518Z,99749.13
2023-06-18T13:40:28.018Z,99745.50
2023-06-18T13:42:55.750Z,99743.91
2023-06-18T13:45:23.063Z,99742.84
2023-06-18T13:47:50.590Z,99743.75
2023-06-18T13:50:17.693Z,99740.50
2023-06-18T13:52:44.844Z,99745.16
2023-06-18T13:55:12.083Z,99741.66
2023-06-18T13:57:39.164Z,99747.38
2023-06-18T14:00:08.966Z,99746.78
2023-06-18T14:02:37.660Z,99744.63
2023-06-18T14:05:07.736Z,99747.09
2023-06-18T14:07:35.274Z,99744.19
2023-06-18T14:10:02.896Z,99741.16
2023-06-18T14:12:31.482Z,99743.59
2023-06-18T14:14:58.862Z,99744.47
2023-06-18T14:17:27.138Z,99737.94
2023-06-18T14:19:56.881Z,99740.13
2023-06-18T14:22:24.133Z,99739.53
2023-06-18T14:24:54.004Z,99738.19
2023-06-18T14:27:21.111Z,99741.44
2023-06-18T14:29:48.441Z,99742.66
2023-06-18T14:32:16.633Z,99737.44
2023-06-18T14:34:44.303Z,99732.91
2023-06-18T14:37:11.402Z,99737.00
2023-06-18T14:39:38.457Z,99729.84
2023-06-18T14:42:06.462Z,99735.91
2023-06-18T14:44:33.532Z,99729.59
2023-06-18T14:47:01.156Z,99729.84
2023-06-18T14:49:28.275Z,99727.91
2023-06-18T14:51:55.609Z,99726.09
2023-06-18T14:54:26.793Z,99724.31
2023-06-18T14:56:54.546Z,99726.09
2023-06-18T14:59:21.938Z,99720.13
2023-06-18T15:01:49.216Z,99721.25
2023-06-18T15:04:16.725Z,99720.47
2023-06-18T15:06:45.557Z,99723.34
2023-06-18T15:09:14.728Z,99711.50
2023-06-18T15:11:42.230Z,99718.94
2023-06-18T15:14:09.346Z,99719.72
2023-06-18T15:16:37.580Z,99723.81
2023-06-18T15:19:04.689Z,99712.28
2023-06-18T15:21:34.514Z,99712.19
2023-06-18T15:24:01.915Z,99717.88
2023-06-18T15:26:29.071Z,99717.28
2023-06-18T15:28:56.241Z,99709.91
2023-06-18T15:31:23.379Z,99711.44
2023-06-18T15:33:51.335Z,99711.81
2023-06-18T15:36:18.333Z,99712.91
2023-06-18T15:38:49.605Z,99710.19
2023-06-18T15:41:16.805Z,99704.03
2023-06-18T15:43:43.963Z,99700.56
2023-06-18T15:46:11.295Z,99701.50
2023-06-18T15:48:38.466Z,99712.22
2023-06-18T15:51:06.241Z,99702.81
2023-06-18T15:53:33.288Z,99707.25
2023-06-18T15:56:01.341Z,99703.69
2023-06-18T15:58:28.557Z,99701.88
2023-06-18T16:00:55.652Z,99705.63
2023-06-18T16:03:22.805Z,99699.72
2023-06-18T16:05:49.856Z,99699.03
2023-06-18T16:08:16.986Z,99701.69
2023-06-18T16:10:44.114Z,99697.41
2023-06-18T16:13:11.248Z,99701.06
2023-06-18T16:15:38.359Z,99697.75
2023-06-18T16:18:07.235Z,99696.03
2023-06-18T16:20:34.938Z,99699.50
2023-06-18T16:23:02.492Z,99696.09
2023-06-18T16:25:29.592Z,99698.09
2023-06-18T16:28:00.248Z,99697.63
2023-06-18T16:30:28.110Z,99700.56
2023-06-18T16:32:55.549Z,99694.91
2023-06-18T16:35:23.258Z,99696.22
2023-06-18T16:37:51.161Z,99701.00
2023-06-18T16:40:18.595Z,99699.59
2023-06-18T16:42:46.133Z,99708.84
2023-06-18T16:45:13.323Z,99709.13
2023-06-18T16:47:40.636Z,99710.34
2023-06-18T16:50:08.441Z,99715.19
2023-06-18T16:52:35.687Z,99710.13
2023-06-18T16:55:04.287Z,99709.75
2023-06-18T16:57:31.875Z,99710.91
2023-06-18T17:00:00.286Z,99711.53
2023-06-18T17:02:29.221Z,99708.56
2023-06-18T17:04:56.456Z,99707.66
2023-06-18T17:07:23.567Z,99710.47
2023-06-18T17:09:50.813Z,99712.31
2023-06-18T17:12:18.253Z,99717.72
2023-06-18T17:14:46.158Z,99715.38
2023-06-18T17:17:38.336Z,99718.22
2023-06-18T17:20:20.157Z,99717.84
2023-06-18T17:22:48.313Z,99716.28
2023-06-18T17:25:23.120Z,99720.84
2023-06-18T17:27:53.422Z,99721.91
2023-06-18T17:30:28.081Z,99720.50
2023-06-18T17:33:02.672Z,99722.91
2023-06-18T17:35:49.920Z,99730.25
2023-06-18T17:38:36.919Z,99731.47
2023-06-18T17:41:05.103Z,99736.28
2023-06-18T17:43:34.513Z,99741.91
2023-06-18T17:46:15.513Z,99737.03
2023-06-18T17:48:49.949Z,99733.72
2023-06-18T17:51:22.348Z,99739.13
2023-06-18T17:53:51.697Z,99743.66
2023-06-18T17:56:34.084Z,99742.31
2023-06-18T17:59:18.840Z,99749.72
2023-06-18T18:01:52.498Z,99751.72
2023-06-18T18:04:21.855Z,99751.25
2023-06-18T18:06:58.275Z,99756.75
2023-06-18T18:09:45.475Z,99754.66
2023-06-18T18:12:16.616Z,99752.25
2023-06-18T18:15:07.119Z,99757.59
2023-06-18T18:17:36.122Z,99749.91
2023-06-18T18:20:05.062Z,99752.78
2023-06-18T18:22:32.818Z,99749.38
2023-06-18T18:25:05.724Z,99756.56
2023-06-18T18:27:37.578Z,99761.88
2023-06-18T18:30:09.080Z,99763.91
2023-06-18T18:32:36.639Z,99757.94
2023-06-18T18:35:04.836Z,99757.97
2023-06-18T18:37:38.196Z,99759.97
2023-06-18T18:40:11.859Z,99761.09
2023-06-18T18:42:40.140Z,99759.50
2023-06-18T18:45:08.605Z,99757.97
2023-06-18T18:47:37.099Z,99758.28
2023-06-18T18:50:09.494Z,99770.75
2023-06-18T18:52:38.562Z,99767.47
2023-06-18T18:55:07.696Z,99774.63
2023-06-18T18:57:36.980Z,99779.34
2023-06-18T19:00:06.590Z,99782.38
2023-06-18T19:02:37.009Z,99788.88
2023-06-18T19:05:04.450Z,99789.09
2023-06-18T19:07:36.593Z,99792.75
2023-06-18T19:10:11.907Z,99790.28
2023-06-18T19:12:49.285Z,99791.28
2023-06-18T19:15:20.427Z,99803.50
2023-06-18T19:17:53.147Z,99801.94
2023-06-18T19:20:21.448Z,99797.59
2023-06-18T19:22:50.676Z,99812.41
2023-06-18T19:25:21.400Z,99816.94
2023-06-18T19:27:51.357Z,99811.94
2023-06-18T19:30:18.443Z,99817.41
2023-06-18T19:32:45.678Z,99815.81
2023-06-18T19:35:17.750Z,99815.91
2023-06-18T19:37:46.525Z,99826.50
2023-06-18T19:40:17.648Z,99825.06
2023-06-18T19:42:49.397Z,99821.66
2023-06-18T19:45:20.494Z,99826.97
2023-06-18T19:47:49.306Z,99824.44
2023-06-18T19:53:12.330Z,99818.44
2023-06-18T19:55:39.807Z,99814.16
2023-06-18T19:58:07.252Z,99817.78
2023-06-18T20:00:37.731Z,99810.78
2023-06-18T20:03:06.301Z,99817.84
2023-06-18T20:05:34.319Z,99818.06
2023-06-18T20:08:09.461Z,99829.38
2023-06-18T20:10:36.597Z,99834.59
2023-06-18T20:13:04.128Z,99835.47
2023-06-18T20:15:31.288Z,99831.16
2023-06-18T20:18:03.041Z,99831.25
2023-06-18T20:20:30.221Z,99832.94
2023-06-18T20:22:57.724Z,99834.75
2023-06-18T20:25:26.199Z,99833.19
2023-06-18T20:27:57.861Z,99837.69
2023-06-18T20:30:25.158Z,99831.78
2023-06-18T20:32:52.601Z,99837.13
2023-06-18T20:35:20.117Z,99842.34
2023-06-18T20:37:48.227Z,99845.03
2023-06-18T20:40:15.850Z,99844.22
2023-06-18T20:42:45.503Z,99847.75
2023-06-18T20:45:24.948Z,99847.81
2023-06-18T20:47:52.584Z,99839.97
2023-06-18T20:50:21.035Z,99852.22
2023-06-18T20:52:48.280Z,99852.38
2023-06-18T20:55:18.600Z,99856.03
2023-06-18T20:57:48.859Z,99849.06
2023-06-18T21:00:17.222Z,99858.75
2023-06-18T21:02:46.530Z,99863.09
2023-06-18T21:05:13.732Z,99862.19
2023-06-18T21:07:43.926Z,99862.22
2023-06-18T21:10:11.218Z,99864.13
2023-06-18T21:12:38.922Z,99870.38
2023-06-18T21:15:07.175Z,99871.34
2023-06-18T21:17:34.703Z,99867.06
2023-06-18T21:20:02.138Z,99871.53
2023-06-18T21:22:34.708Z,99882.94
2023-06-18T21:25:02.026Z,99882.19
2023-06-18T21:27:32.128Z,99876.13
2023-06-18T21:29:59.592Z,99882.34
2023-06-18T21:32:26.912Z,99885.81
2023-06-18T21:34:54.122Z,99880.69
2023-06-18T21:37:21.349Z,99884.25
2023-06-18T21:39:49.585Z,99882.81
2023-06-18T21:42:16.838Z,99885.53
2023-06-18T21:44:43.970Z,99877.75
2023-06-18T21:47:11.108Z,99884.00
2023-06-18T21:49:38.225Z,99886.72
2023-06-18T21:52:05.978Z,99883.31
2023-06-18T21:54:32.951Z,99887.75
2023-06-18T21:57:00.193Z,99886.16
2023-06-18T21:59:27.422Z,99885.25
2023-06-18T22:01:55.158Z,99885.19
2023-06-18T22:04:22.260Z,99885.97
2023-06-18T22:06:49.357Z,99889.38
2023-06-18T22:09:16.434Z,99888.66
2023-06-18T22:11:43.410Z,99900.03
2023-06-18T22:14:10.408Z,99896.53
2023-06-18T22:16:37.558Z,99900.09
2023-06-18T22:19:13.862Z,99882.75
2023-06-18T22:21:40.766Z,99889.00
2023-06-18T22:24:07.789Z,99901.19
2023-06-18T22:26:34.933Z,99906.50
2023-06-18T22:29:02.483Z,99903.00
2023-06-18T22:31:29.766Z,99903.00
2023-06-18T22:33:58.383Z,99911.63
2023-06-18T22:36:25.690Z,99902.00
2023-06-18T22:38:52.791Z,99900.28
2023-06-18T22:41:19.788Z,99897.72
2023-06-18T22:43:49.240Z,99900.34
2023-06-18T22:46:16.434Z,99912.59
2023-06-18T22:48:43.575Z,99909.13
2023-06-18T22:51:10.610Z,99904.72
2023-06-18T22:53:37.782Z,99902.09
2023-06-18T22:56:05.150Z,99904.72
2023-06-18T22:58:32.305Z,99910.00
2023-06-18T23:00:59.408Z,99912.59
2023-06-18T23:03:26.799Z,99910.94
2023-06-18T23:05:54.258Z,99907.50
2023-06-18T23:08:21.636Z,99915.31
2023-06-18T23:10:48.823Z,99918.75
2023-06-18T23:13:16.430Z,99920.56
2023-06-18T23:15:43.813Z,99925.06
2023-06-18T23:18:10.817Z,99917.31
2023-06-18T23:20:40.614Z,99922.53
2023-06-18T23:23:07.833Z,99923.44
2023-06-18T23:25:37.986Z,99918.19
2023-06-18T23:28:05.366Z,99919.94
2023-06-18T23:30:36.170Z,99926.00
2023-06-18T23:33:03.955Z,99933.84
2023-06-18T23:35:31.168Z,99927.84
2023-06-18T23:37:58.333Z,99931.34
2023-06-18T23:40:25.650Z,99940.88
2023-06-18T23:42:53.152Z,99937.38
2023-06-18T23:45:20.351Z,99938.25
2023-06-18T23:47:47.425Z,99937.41
2023-06-18T23:50:14.735Z,99930.59
2023-06-18T23:52:41.716Z,99935.06
2023-06-18T23:55:09.133Z,99934.22
2023-06-18T23:57:36.358Z,99931.66
